createdAt,value
2022-09-04T00:00:22.591Z,13.78
2022-09-04T00:01:22.578Z,13.71
2022-09-04T00:02:22.564Z,13.70
2022-09-04T00:03:22.551Z,13.73
2022-09-04T00:04:22.625Z,13.68
2022-09-04T00:05:22.519Z,13.73
2022-09-04T00:06:22.505Z,13.73
2022-09-04T00:07:22.489Z,13.76
2022-09-04T00:08:22.506Z,13.73
2022-09-04T00:09:22.460Z,13.64
2022-09-04T00:10:22.445Z,13.73
2022-09-04T00:11:22.430Z,13.65
2022-09-04T00:12:26.668Z,13.78
2022-09-04T00:13:22.399Z,13.65
2022-09-04T00:14:22.385Z,13.58
2022-09-04T00:15:22.372Z,13.65
2022-09-04T00:16:22.405Z,13.64
2022-09-04T00:17:22.341Z,13.67
2022-09-04T00:18:22.376Z,13.67
2022-09-04T00:19:22.310Z,13.62
2022-09-04T00:20:22.294Z,13.62
2022-09-04T00:21:22.283Z,13.60
2022-09-04T00:22:22.267Z,13.62
2022-09-04T00:23:22.252Z,13.62
2022-09-04T00:24:22.234Z,13.61
2022-09-04T00:25:22.223Z,13.64
2022-09-04T00:26:22.203Z,13.57
2022-09-04T00:27:22.196Z,13.49
2022-09-04T00:28:22.226Z,13.55
2022-09-04T00:29:22.163Z,13.55
2022-09-04T00:30:22.147Z,13.55
2022-09-04T00:31:22.208Z,13.54
2022-09-04T00:32:22.127Z,13.60
2022-09-04T00:33:22.103Z,13.60
2022-09-04T00:34:22.086Z,13.55
2022-09-04T00:35:22.073Z,13.61
2022-09-04T00:36:22.059Z,13.62
2022-09-04T00:37:22.043Z,13.57
2022-09-04T00:38:22.091Z,13.60
2022-09-04T00:39:22.048Z,13.57
2022-09-04T00:40:21.997Z,13.57
2022-09-04T00:41:21.983Z,13.57
2022-09-04T00:42:21.968Z,13.62
2022-09-04T00:43:21.957Z,13.58
2022-09-04T00:44:21.938Z,13.57
2022-09-04T00:45:21.925Z,13.55
2022-09-04T00:46:22.097Z,13.60
2022-09-04T00:47:22.016Z,13.52
2022-09-04T00:48:21.882Z,13.47
2022-09-04T00:49:21.909Z,13.58
2022-09-04T00:50:21.845Z,13.47
2022-09-04T00:51:21.834Z,13.47
2022-09-04T00:52:21.817Z,13.47
2022-09-04T00:53:21.804Z,13.52
2022-09-04T00:54:21.788Z,13.49
2022-09-04T00:55:21.773Z,13.45
2022-09-04T00:56:21.757Z,13.47
2022-09-04T00:57:21.743Z,13.45
2022-09-04T00:58:21.736Z,13.54
2022-09-04T00:59:21.716Z,13.40
2022-09-04T01:00:21.698Z,13.43
2022-09-04T01:01:21.796Z,13.49
2022-09-04T01:02:21.698Z,13.42
2022-09-04T01:03:21.656Z,13.33
2022-09-04T01:04:21.648Z,13.30
2022-09-04T01:05:21.646Z,13.39
2022-09-04T01:06:21.610Z,13.31
2022-09-04T01:07:21.596Z,13.39
2022-09-04T01:08:21.606Z,13.28
2022-09-04T01:09:21.562Z,13.36
2022-09-04T01:10:21.548Z,13.31
2022-09-04T01:11:21.541Z,13.33
2022-09-04T01:12:21.520Z,13.30
2022-09-04T01:13:21.511Z,13.27
2022-09-04T01:14:21.492Z,13.30
2022-09-04T01:15:21.475Z,13.27
2022-09-04T01:16:21.494Z,13.28
2022-09-04T01:17:21.447Z,13.31
2022-09-04T01:18:21.429Z,13.31
2022-09-04T01:19:21.422Z,13.33
2022-09-04T01:20:21.403Z,13.36
2022-09-04T01:21:21.383Z,13.36
2022-09-04T01:22:21.372Z,13.31
2022-09-04T01:23:21.355Z,13.43
2022-09-04T01:24:21.340Z,13.45
2022-09-04T01:25:21.325Z,13.45
2022-09-04T01:26:21.308Z,13.49
2022-09-04T01:27:21.294Z,13.49
2022-09-04T01:28:21.282Z,13.57
2022-09-04T01:29:21.266Z,13.55
2022-09-04T01:30:21.248Z,13.50
2022-09-04T01:31:21.263Z,13.47
2022-09-04T01:32:21.219Z,13.55
2022-09-04T01:33:21.207Z,13.52
2022-09-04T01:34:21.188Z,13.54
2022-09-04T01:35:21.175Z,13.47
2022-09-04T01:36:21.160Z,13.50
2022-09-04T01:37:21.144Z,13.49
2022-09-04T01:38:21.132Z,13.47
2022-09-04T01:39:21.156Z,13.55
2022-09-04T01:40:21.104Z,13.47
2022-09-04T01:41:21.087Z,13.52
2022-09-04T01:42:21.070Z,13.46
2022-09-04T01:43:21.086Z,13.52
2022-09-04T01:44:21.040Z,13.46
2022-09-04T01:45:21.034Z,13.55
2022-09-04T01:46:21.015Z,13.45
2022-09-04T01:47:21.002Z,13.47
2022-09-04T01:48:20.982Z,13.50
2022-09-04T01:49:20.965Z,13.49
2022-09-04T01:50:20.952Z,13.45
2022-09-04T01:51:20.934Z,13.45
2022-09-04T01:52:20.920Z,13.43
2022-09-04T01:53:20.907Z,13.45
2022-09-04T01:54:20.893Z,13.33
2022-09-04T01:55:20.875Z,13.45
2022-09-04T01:56:20.865Z,13.42
2022-09-04T01:57:20.846Z,13.42
2022-09-04T01:58:20.870Z,13.36
2022-09-04T01:59:20.816Z,13.46
2022-09-04T02:00:20.804Z,13.43
2022-09-04T02:01:21.125Z,13.31
2022-09-04T02:02:20.804Z,13.36
2022-09-04T02:03:20.757Z,13.42
2022-09-04T02:04:20.744Z,13.36
2022-09-04T02:05:20.725Z,13.39
2022-09-04T02:06:20.714Z,13.40
2022-09-04T02:07:20.696Z,13.42
2022-09-04T02:08:20.684Z,13.36
2022-09-04T02:09:20.665Z,13.30
2022-09-04T02:10:20.654Z,13.36
2022-09-04T02:11:20.640Z,13.33
2022-09-04T02:12:20.623Z,13.30
2022-09-04T02:13:20.606Z,13.39
2022-09-04T02:14:20.591Z,13.36
2022-09-04T02:15:20.575Z,13.33
2022-09-04T02:16:20.648Z,13.31
2022-09-04T02:17:20.548Z,13.31
2022-09-04T02:18:20.598Z,13.36
2022-09-04T02:19:20.516Z,13.36
2022-09-04T02:20:20.511Z,13.42
2022-09-04T02:21:20.487Z,13.28
2022-09-04T02:22:20.473Z,13.31
2022-09-04T02:23:20.459Z,13.36
2022-09-04T02:24:20.447Z,13.33
2022-09-04T02:25:20.424Z,13.30
2022-09-04T02:26:20.411Z,13.30
2022-09-04T02:27:20.396Z,13.31
2022-09-04T02:28:20.440Z,13.40
2022-09-04T02:29:20.367Z,13.33
2022-09-04T02:30:20.366Z,13.27
2022-09-04T02:31:20.427Z,13.33
2022-09-04T02:32:20.329Z,13.37
2022-09-04T02:33:20.307Z,13.30
2022-09-04T02:34:20.290Z,13.36
2022-09-04T02:35:20.278Z,13.33
2022-09-04T02:36:20.261Z,13.31
2022-09-04T02:37:20.245Z,13.30
2022-09-04T02:38:20.316Z,13.30
2022-09-04T02:39:20.240Z,13.30
2022-09-04T02:40:20.203Z,13.28
2022-09-04T02:41:20.187Z,13.30
2022-09-04T02:42:20.172Z,13.30
2022-09-04T02:43:20.157Z,13.39
2022-09-04T02:44:20.141Z,13.28
2022-09-04T02:45:20.124Z,13.17
2022-09-04T02:46:20.149Z,13.19
2022-09-04T02:47:20.098Z,13.27
2022-09-04T02:48:20.160Z,13.26
2022-09-04T02:49:20.066Z,13.20
2022-09-04T02:50:20.051Z,13.16
2022-09-04T02:51:20.035Z,13.16
2022-09-04T02:52:20.026Z,13.21
2022-09-04T02:53:20.007Z,13.12
2022-09-04T02:54:19.990Z,13.13
2022-09-04T02:55:19.974Z,13.09
2022-09-04T02:56:19.961Z,13.09
2022-09-04T02:57:19.947Z,13.11
2022-09-04T02:58:19.956Z,13.17
2022-09-04T02:59:19.919Z,13.17
2022-09-04T03:00:21.266Z,13.16
2022-09-04T03:01:19.911Z,13.17
2022-09-04T03:02:19.923Z,13.21
2022-09-04T03:03:19.855Z,13.11
2022-09-04T03:04:19.843Z,13.12
2022-09-04T03:05:19.823Z,13.13
2022-09-04T03:06:19.810Z,13.13
2022-09-04T03:07:19.798Z,13.12
2022-09-04T03:08:19.799Z,12.99
2022-09-04T03:09:19.762Z,13.13
2022-09-04T03:10:19.749Z,13.06
2022-09-04T03:11:19.736Z,13.03
2022-09-04T03:12:19.721Z,13.11
2022-09-04T03:13:19.720Z,13.05
2022-09-04T03:14:19.689Z,13.06
2022-09-04T03:15:19.681Z,13.06
2022-09-04T03:16:19.728Z,13.09
2022-09-04T03:17:19.646Z,13.02
2022-09-04T03:18:19.628Z,13.09
2022-09-04T03:19:19.616Z,13.03
2022-09-04T03:20:19.600Z,13.01
2022-09-04T03:21:19.581Z,12.91
2022-09-04T03:22:19.568Z,12.95
2022-09-04T03:23:19.552Z,12.94
2022-09-04T03:24:19.543Z,12.91
2022-09-04T03:25:19.522Z,12.88
2022-09-04T03:26:19.507Z,12.91
2022-09-04T03:27:19.503Z,12.88
2022-09-04T03:28:19.524Z,12.95
2022-09-04T03:29:19.462Z,12.91
2022-09-04T03:30:19.449Z,12.94
2022-09-04T03:31:19.490Z,12.84
2022-09-04T03:32:19.417Z,12.83
2022-09-04T03:33:19.420Z,12.83
2022-09-04T03:34:19.388Z,12.73
2022-09-04T03:35:19.372Z,12.78
2022-09-04T03:36:19.356Z,12.72
2022-09-04T03:37:19.347Z,12.80
2022-09-04T03:38:19.355Z,12.75
2022-09-04T03:39:19.356Z,12.73
2022-09-04T03:40:19.297Z,12.73
2022-09-04T03:41:19.277Z,12.80
2022-09-04T03:42:19.275Z,12.73
2022-09-04T03:43:19.256Z,12.65
2022-09-04T03:44:19.234Z,12.69
2022-09-04T03:45:19.217Z,12.65
2022-09-04T03:46:19.225Z,12.65
2022-09-04T03:47:19.204Z,12.62
2022-09-04T03:48:19.265Z,12.58
2022-09-04T03:49:19.160Z,12.58
2022-09-04T03:50:19.144Z,12.66
2022-09-04T03:51:19.129Z,12.62
2022-09-04T03:52:19.118Z,12.62
2022-09-04T03:53:19.107Z,12.65
2022-09-04T03:54:19.086Z,12.66
2022-09-04T03:55:19.065Z,12.68
2022-09-04T03:56:19.051Z,12.72
2022-09-04T03:57:19.074Z,12.63
2022-09-04T03:58:19.025Z,12.69
2022-09-04T03:59:19.018Z,12.61
2022-09-04T04:00:18.989Z,12.50
2022-09-04T04:01:24.143Z,12.61
2022-09-04T04:02:18.958Z,12.65
2022-09-04T04:03:18.986Z,12.63
2022-09-04T04:04:18.934Z,12.62
2022-09-04T04:05:18.921Z,12.48
2022-09-04T04:06:18.898Z,12.50
2022-09-04T04:07:18.882Z,12.57
2022-09-04T04:08:18.867Z,12.48
2022-09-04T04:09:18.891Z,12.50
2022-09-04T04:10:18.844Z,12.51
2022-09-04T04:11:18.822Z,12.48
2022-09-04T04:12:18.811Z,12.45
2022-09-04T04:13:18.791Z,12.57
2022-09-04T04:14:18.777Z,12.48
2022-09-04T04:15:18.758Z,12.48
2022-09-04T04:16:18.753Z,12.54
2022-09-04T04:17:20.392Z,12.48
2022-09-04T04:18:18.759Z,12.45
2022-09-04T04:19:18.697Z,12.51
2022-09-04T04:20:18.708Z,12.48
2022-09-04T04:21:18.667Z,12.47
2022-09-04T04:22:18.652Z,12.55
2022-09-04T04:23:18.641Z,12.47
2022-09-04T04:24:18.621Z,12.53
2022-09-04T04:25:18.604Z,12.48
2022-09-04T04:26:18.590Z,12.53
2022-09-04T04:27:18.582Z,12.51
2022-09-04T04:28:18.613Z,12.55
2022-09-04T04:29:18.590Z,12.48
2022-09-04T04:30:18.530Z,12.47
2022-09-04T04:31:18.561Z,12.47
2022-09-04T04:32:18.504Z,12.37
2022-09-04T04:33:18.486Z,12.50
2022-09-04T04:34:18.468Z,12.43
2022-09-04T04:35:18.452Z,12.47
2022-09-04T04:36:18.439Z,12.44
2022-09-04T04:38:26.197Z,12.44
2022-09-04T04:40:22.845Z,12.43
2022-09-04T04:41:22.811Z,12.45
2022-09-04T04:43:27.257Z,12.45
2022-09-04T04:44:27.221Z,12.32
2022-09-04T04:46:31.712Z,12.50
2022-09-04T04:47:31.629Z,12.47
2022-09-04T04:49:36.064Z,12.36
2022-09-04T04:50:36.043Z,12.36
2022-09-04T04:52:40.017Z,12.43
2022-09-04T04:53:39.989Z,12.37
2022-09-04T04:55:44.437Z,12.37
2022-09-04T04:56:44.403Z,12.39
2022-09-04T04:58:37.773Z,12.39
2022-09-04T04:59:37.749Z,12.36
2022-09-04T05:01:41.778Z,12.37
2022-09-04T05:02:41.786Z,12.36
2022-09-04T05:04:45.655Z,12.32
2022-09-04T05:05:45.636Z,12.36
2022-09-04T05:07:50.084Z,12.51
2022-09-04T05:08:50.052Z,12.35
2022-09-04T05:10:54.499Z,12.35
2022-09-04T05:11:54.468Z,12.43
2022-09-04T05:13:58.903Z,12.36
2022-09-04T05:14:58.883Z,12.39
2022-09-04T05:17:02.904Z,12.40
2022-09-04T05:18:02.849Z,12.45
2022-09-04T05:20:07.286Z,12.37
2022-09-04T05:21:07.264Z,12.40
2022-09-04T05:23:11.726Z,12.47
2022-09-04T05:24:11.686Z,12.45
2022-09-04T05:26:16.133Z,12.48
2022-09-04T05:27:16.094Z,12.45
2022-09-04T05:29:20.056Z,12.50
2022-09-04T05:30:20.034Z,12.50
2022-09-04T05:32:24.020Z,12.48
2022-09-04T05:33:23.995Z,12.58
2022-09-04T05:35:31.880Z,12.65
2022-09-04T05:36:28.405Z,12.66
2022-09-04T05:38:21.319Z,12.63
2022-09-04T05:39:21.324Z,12.66
2022-09-04T05:41:25.250Z,12.65
2022-09-04T05:42:25.233Z,12.65
2022-09-04T05:44:29.676Z,12.73
2022-09-04T05:45:29.643Z,12.73
2022-09-04T05:47:34.093Z,12.90
2022-09-04T05:48:34.059Z,12.94
2022-09-04T05:50:38.497Z,13.05
2022-09-04T05:51:38.474Z,13.09
2022-09-04T05:53:42.926Z,13.27
2022-09-04T05:54:42.890Z,13.40
2022-09-04T05:56:47.343Z,13.52
2022-09-04T05:57:47.309Z,13.58
2022-09-04T05:59:51.741Z,13.67
2022-09-04T06:00:51.723Z,13.70
2022-09-04T06:02:56.263Z,13.97
2022-09-04T06:03:56.132Z,13.98
2022-09-04T06:06:00.571Z,14.07
2022-09-04T06:07:00.549Z,14.26
2022-09-04T06:08:53.934Z,14.38
2022-09-04T06:09:53.899Z,14.45
2022-09-04T06:11:58.351Z,14.63
2022-09-04T06:12:58.319Z,14.71
2022-09-04T06:15:02.758Z,14.94
2022-09-04T06:16:02.759Z,15.00
2022-09-04T06:18:07.178Z,15.18
2022-09-04T06:19:07.154Z,15.27
2022-09-04T06:20:07.140Z,15.27
2022-09-04T06:21:07.123Z,15.39
2022-09-04T06:22:07.105Z,15.47
2022-09-04T06:23:07.101Z,15.52
2022-09-04T06:24:07.079Z,15.59
2022-09-04T06:25:07.491Z,15.66
2022-09-04T06:26:07.049Z,15.69
2022-09-04T06:27:07.038Z,15.75
2022-09-04T06:28:07.020Z,15.87
2022-09-04T06:29:07.007Z,15.88
2022-09-04T06:30:06.995Z,16.03
2022-09-04T06:31:07.049Z,16.13
2022-09-04T06:32:06.965Z,16.16
2022-09-04T06:33:06.952Z,16.22
2022-09-04T06:34:06.936Z,16.31
2022-09-04T06:35:06.922Z,16.39
2022-09-04T06:36:06.912Z,16.40
2022-09-04T06:37:06.893Z,16.49
2022-09-04T06:38:06.878Z,16.55
2022-09-04T06:39:06.868Z,16.64
2022-09-04T06:40:06.899Z,16.65
2022-09-04T06:41:06.839Z,16.68
2022-09-04T06:42:06.827Z,16.76
2022-09-04T06:43:06.812Z,16.86
2022-09-04T06:44:06.795Z,16.92
2022-09-04T06:45:06.781Z,17.01
2022-09-04T06:46:06.830Z,16.99
2022-09-04T06:47:06.815Z,16.99
2022-09-04T06:48:06.739Z,16.97
2022-09-04T06:49:06.727Z,17.12
2022-09-04T06:50:06.713Z,17.14
2022-09-04T06:51:06.699Z,17.17
2022-09-04T06:52:06.684Z,17.28
2022-09-04T06:53:06.680Z,17.34
2022-09-04T06:54:06.665Z,17.39
2022-09-04T06:55:06.648Z,17.49
2022-09-04T06:56:06.630Z,17.52
2022-09-04T06:57:06.619Z,17.54
2022-09-04T06:58:06.609Z,17.68
2022-09-04T06:59:06.591Z,17.75
2022-09-04T07:00:06.577Z,17.80
2022-09-04T07:01:06.566Z,17.86
2022-09-04T07:02:06.699Z,17.84
2022-09-04T07:03:06.536Z,17.91
2022-09-04T07:04:06.523Z,17.93
2022-09-04T07:05:06.510Z,18.09
2022-09-04T07:06:06.499Z,18.03
2022-09-04T07:07:06.484Z,18.15
2022-09-04T07:08:06.471Z,18.15
2022-09-04T07:09:06.493Z,18.31
2022-09-04T07:10:10.306Z,18.26
2022-09-04T07:11:06.432Z,18.27
2022-09-04T07:12:06.422Z,18.34
2022-09-04T07:13:06.410Z,18.45
2022-09-04T07:14:06.478Z,18.39
2022-09-04T07:15:06.379Z,18.51
2022-09-04T07:16:06.416Z,18.63
2022-09-04T07:17:06.353Z,18.74
2022-09-04T07:18:06.386Z,18.55
2022-09-04T07:19:06.326Z,18.60
2022-09-04T07:20:06.315Z,18.70
2022-09-04T07:21:06.303Z,18.70
2022-09-04T07:22:06.288Z,18.70
2022-09-04T07:23:06.285Z,18.88
2022-09-04T07:24:06.264Z,18.97
2022-09-04T07:25:06.249Z,18.96
2022-09-04T07:26:06.239Z,18.98
2022-09-04T07:27:06.226Z,19.08
2022-09-04T07:28:06.322Z,19.23
2022-09-04T07:29:06.200Z,19.35
2022-09-04T07:30:06.188Z,19.34
2022-09-04T07:31:06.224Z,19.44
2022-09-04T07:32:06.161Z,19.49
2022-09-04T07:33:06.151Z,19.45
2022-09-04T07:34:06.140Z,19.63
2022-09-04T07:35:06.130Z,19.62
2022-09-04T07:36:06.111Z,19.81
2022-09-04T07:37:06.102Z,19.90
2022-09-04T07:38:06.092Z,20.02
2022-09-04T07:39:06.078Z,20.02
2022-09-04T07:40:08.147Z,20.04
2022-09-04T07:41:06.055Z,20.12
2022-09-04T07:42:06.042Z,20.18
2022-09-04T07:43:06.035Z,20.22
2022-09-04T07:44:06.017Z,20.21
2022-09-04T07:45:06.024Z,20.36
2022-09-04T07:46:06.040Z,20.56
2022-09-04T07:47:05.984Z,20.71
2022-09-04T07:48:05.971Z,20.64
2022-09-04T07:49:05.969Z,20.70
2022-09-04T07:50:05.949Z,20.75
2022-09-04T07:51:05.938Z,20.83
2022-09-04T07:52:05.931Z,20.82
2022-09-04T07:53:10.621Z,20.88
2022-09-04T07:54:06.007Z,21.00
2022-09-04T07:55:05.894Z,21.03
2022-09-04T07:56:05.883Z,21.20
2022-09-04T07:57:05.872Z,21.30
2022-09-04T07:58:05.865Z,21.43
2022-09-04T07:59:05.856Z,21.50
2022-09-04T08:00:05.842Z,21.58
2022-09-04T08:01:05.852Z,21.53
2022-09-04T08:02:05.942Z,21.63
2022-09-04T08:03:05.809Z,21.63
2022-09-04T08:04:05.799Z,21.59
2022-09-04T08:05:05.838Z,21.72
2022-09-04T08:06:05.777Z,21.72
2022-09-04T08:07:10.821Z,21.80
2022-09-04T08:08:05.759Z,21.85
2022-09-04T08:09:05.750Z,21.89
2022-09-04T08:10:05.813Z,21.99
2022-09-04T08:11:05.728Z,22.07
2022-09-04T08:12:05.724Z,22.22
2022-09-04T08:13:05.709Z,22.26
2022-09-04T08:14:05.705Z,22.26
2022-09-04T08:15:05.693Z,22.22
2022-09-04T08:16:05.718Z,22.33
2022-09-04T08:17:05.679Z,22.41
2022-09-04T08:18:05.740Z,22.58
2022-09-04T08:19:05.653Z,22.58
2022-09-04T08:20:05.644Z,22.74
2022-09-04T08:21:05.637Z,22.76
2022-09-04T08:22:05.628Z,22.81
2022-09-04T08:23:05.624Z,22.84
2022-09-04T08:24:05.609Z,22.96
2022-09-04T08:25:05.604Z,23.07
2022-09-04T08:26:05.596Z,23.13
2022-09-04T08:27:05.599Z,23.33
2022-09-04T08:28:05.603Z,23.48
2022-09-04T08:29:05.570Z,23.62
2022-09-04T08:30:05.568Z,23.77
2022-09-04T08:31:05.628Z,23.74
2022-09-04T08:32:05.545Z,23.95
2022-09-04T08:33:05.555Z,24.01
2022-09-04T08:34:05.530Z,24.09
2022-09-04T08:35:05.604Z,24.24
2022-09-04T08:36:05.518Z,24.28
2022-09-04T08:37:05.513Z,24.40
2022-09-04T08:38:05.504Z,24.51
2022-09-04T08:39:07.360Z,24.50
2022-09-04T08:40:05.531Z,24.43
2022-09-04T08:41:05.485Z,24.44
2022-09-04T08:42:05.479Z,24.61
2022-09-04T08:43:05.468Z,24.78
2022-09-04T08:44:05.468Z,24.99
2022-09-04T08:45:05.469Z,24.99
2022-09-04T08:46:05.634Z,25.12
2022-09-04T08:47:05.442Z,25.37
2022-09-04T08:48:05.530Z,25.55
2022-09-04T08:49:05.429Z,25.73
2022-09-04T08:50:05.421Z,25.86
2022-09-04T08:51:05.415Z,25.95
2022-09-04T08:52:05.409Z,25.92
2022-09-04T08:53:05.475Z,25.96
2022-09-04T08:54:05.397Z,25.98
2022-09-04T08:55:05.396Z,26.10
2022-09-04T08:56:05.386Z,26.30
2022-09-04T08:57:05.381Z,26.55
2022-09-04T08:58:05.437Z,26.70
2022-09-04T08:59:05.367Z,26.63
2022-09-04T09:00:05.362Z,26.60
2022-09-04T09:01:05.406Z,26.61
2022-09-04T09:02:05.429Z,26.68
2022-09-04T09:03:05.347Z,26.68
2022-09-04T09:04:05.345Z,26.81
2022-09-04T09:05:05.348Z,26.85
2022-09-04T09:06:05.342Z,26.86
2022-09-04T09:07:05.321Z,27.07
2022-09-04T09:08:05.323Z,27.15
2022-09-04T09:09:05.310Z,27.37
2022-09-04T09:10:05.313Z,27.33
2022-09-04T09:11:05.304Z,27.44
2022-09-04T09:12:05.297Z,27.35
2022-09-04T09:13:05.288Z,27.43
2022-09-04T09:14:05.287Z,27.60
2022-09-04T09:15:05.281Z,27.66
2022-09-04T09:16:05.277Z,27.79
2022-09-04T09:17:05.322Z,28.01
2022-09-04T09:18:05.361Z,28.15
2022-09-04T09:19:05.257Z,28.46
2022-09-04T09:20:05.271Z,28.55
2022-09-04T09:21:05.252Z,28.72
2022-09-04T09:22:05.244Z,29.07
2022-09-04T09:23:05.237Z,29.32
2022-09-04T09:24:05.234Z,29.65
2022-09-04T09:25:05.231Z,29.79
2022-09-04T09:26:05.225Z,29.86
2022-09-04T09:27:05.219Z,29.96
2022-09-04T09:28:05.216Z,30.08
2022-09-04T09:29:05.212Z,30.11
2022-09-04T09:30:05.207Z,30.32
2022-09-04T09:31:05.261Z,30.24
2022-09-04T09:32:05.200Z,30.31
2022-09-04T09:33:05.197Z,30.36
2022-09-04T09:34:05.194Z,30.40
2022-09-04T09:35:05.193Z,30.40
2022-09-04T09:36:05.191Z,30.36
2022-09-04T09:37:05.179Z,30.38
2022-09-04T09:38:05.176Z,30.35
2022-09-04T09:39:05.174Z,30.35
2022-09-04T09:40:05.241Z,30.39
2022-09-04T09:41:05.165Z,30.32
2022-09-04T09:42:05.168Z,30.33
2022-09-04T09:43:05.173Z,30.39
2022-09-04T09:44:05.157Z,30.48
2022-09-04T09:45:05.148Z,30.65
2022-09-04T09:46:05.207Z,30.74
2022-09-04T09:47:05.139Z,30.71
2022-09-04T09:48:07.762Z,30.81
2022-09-04T09:49:05.134Z,31.05
2022-09-04T09:50:05.215Z,31.20
2022-09-04T09:51:05.175Z,31.22
2022-09-04T09:52:05.124Z,31.29
2022-09-04T09:53:05.149Z,31.20
2022-09-04T09:54:05.176Z,31.05
2022-09-04T09:55:05.153Z,31.08
2022-09-04T09:56:05.115Z,31.11
2022-09-04T09:57:05.129Z,31.22
2022-09-04T09:58:05.107Z,31.35
2022-09-04T09:59:05.102Z,31.25
2022-09-04T10:00:05.104Z,31.22
2022-09-04T10:01:08.340Z,31.11
2022-09-04T10:02:05.149Z,30.92
2022-09-04T10:03:05.104Z,30.65
2022-09-04T10:04:05.108Z,30.67
2022-09-04T10:05:05.117Z,30.77
2022-09-04T10:06:05.115Z,31.04
2022-09-04T10:07:05.078Z,31.07
2022-09-04T10:08:05.074Z,31.08
2022-09-04T10:09:09.223Z,31.22
2022-09-04T10:10:05.071Z,31.39
2022-09-04T10:11:05.090Z,31.52
2022-09-04T10:12:05.061Z,31.86
2022-09-04T10:13:05.093Z,32.02
2022-09-04T10:14:05.087Z,32.09
2022-09-04T10:15:05.051Z,32.23
2022-09-04T10:16:05.088Z,32.24
2022-09-04T10:17:05.042Z,32.26
2022-09-04T10:18:05.048Z,32.34
2022-09-04T10:19:05.055Z,32.35
2022-09-04T10:20:05.035Z,32.23
2022-09-04T10:21:05.037Z,32.27
2022-09-04T10:22:05.026Z,32.51
2022-09-04T10:23:05.025Z,32.57
2022-09-04T10:24:05.060Z,32.63
2022-09-04T10:25:05.151Z,32.75
2022-09-04T10:26:05.026Z,32.72
2022-09-04T10:27:05.016Z,32.71
2022-09-04T10:28:05.010Z,32.49
2022-09-04T10:29:05.015Z,32.22
2022-09-04T10:30:05.101Z,31.93
2022-09-04T10:31:05.094Z,31.66
2022-09-04T10:32:04.999Z,31.45
2022-09-04T10:33:09.211Z,31.44
2022-09-04T10:34:04.996Z,31.54
2022-09-04T10:35:04.987Z,31.63
2022-09-04T10:36:04.988Z,31.86
2022-09-04T10:37:05.018Z,32.12
2022-09-04T10:38:04.980Z,32.66
2022-09-04T10:39:04.976Z,33.08
2022-09-04T10:40:12.716Z,33.39
2022-09-04T10:42:09.450Z,33.73
2022-09-04T10:43:09.438Z,33.98
2022-09-04T10:45:13.907Z,33.92
2022-09-04T10:46:22.973Z,33.76
2022-09-04T10:48:18.365Z,33.73
2022-09-04T10:49:18.346Z,33.97
2022-09-04T10:51:11.294Z,34.00
2022-09-04T10:52:11.280Z,33.91
2022-09-04T10:54:15.992Z,33.76
2022-09-04T10:55:15.973Z,33.60
2022-09-04T10:56:15.972Z,33.57
2022-09-04T10:57:15.969Z,33.42
2022-09-04T10:58:15.975Z,33.50
2022-09-04T10:59:15.963Z,33.60
2022-09-04T11:00:15.962Z,33.61
2022-09-04T11:01:15.989Z,33.44
2022-09-04T11:02:16.013Z,33.17
2022-09-04T11:03:15.955Z,33.10
2022-09-04T11:04:15.954Z,33.05
2022-09-04T11:05:15.960Z,32.90
2022-09-04T11:06:15.947Z,33.05
2022-09-04T11:07:15.948Z,33.42
2022-09-04T11:08:15.944Z,33.51
2022-09-04T11:09:15.943Z,33.44
2022-09-04T11:10:15.940Z,33.42
2022-09-04T11:11:15.937Z,33.51
2022-09-04T11:12:15.936Z,33.82
2022-09-04T11:13:15.937Z,34.16
2022-09-04T11:14:15.930Z,34.40
2022-09-04T11:15:15.928Z,34.62
2022-09-04T11:16:15.959Z,34.73
2022-09-04T11:17:15.924Z,34.73
2022-09-04T11:18:15.922Z,34.73
2022-09-04T11:19:15.920Z,34.60
2022-09-04T11:20:18.416Z,34.56
2022-09-04T11:21:15.921Z,34.56
2022-09-04T11:22:15.913Z,34.55
2022-09-04T11:23:15.914Z,34.55
2022-09-04T11:24:15.909Z,34.58
2022-09-04T11:25:15.908Z,34.73
2022-09-04T11:26:15.906Z,34.89
2022-09-04T11:27:15.906Z,34.86
2022-09-04T11:28:16.052Z,34.94
2022-09-04T11:29:15.902Z,34.81
2022-09-04T11:30:15.925Z,34.76
2022-09-04T11:31:15.921Z,34.58
2022-09-04T11:32:15.904Z,34.55
2022-09-04T11:33:15.894Z,34.28
2022-09-04T11:34:15.892Z,34.03
2022-09-04T11:35:15.892Z,33.76
2022-09-04T11:36:15.889Z,33.48
2022-09-04T11:37:15.887Z,33.15
2022-09-04T11:38:15.885Z,32.81
2022-09-04T11:39:15.880Z,32.85
2022-09-04T11:40:15.876Z,32.91
2022-09-04T11:41:15.878Z,32.85
2022-09-04T11:42:15.871Z,32.98
2022-09-04T11:43:15.870Z,33.31
2022-09-04T11:44:15.868Z,33.44
2022-09-04T11:45:15.866Z,33.35
2022-09-04T11:46:15.885Z,33.03
2022-09-04T11:47:15.859Z,32.79
2022-09-04T11:48:15.857Z,32.63
2022-09-04T11:49:15.854Z,32.30
2022-09-04T11:50:15.849Z,32.05
2022-09-04T11:51:15.849Z,31.70
2022-09-04T11:52:15.845Z,31.59
2022-09-04T11:53:15.844Z,31.54
2022-09-04T11:54:15.838Z,31.74
2022-09-04T11:55:15.839Z,31.93
2022-09-04T11:56:15.831Z,32.05
2022-09-04T11:57:15.827Z,31.92
2022-09-04T11:58:15.823Z,31.85
2022-09-04T11:59:15.820Z,31.77
2022-09-04T12:00:15.816Z,32.05
2022-09-04T12:01:15.822Z,32.44
2022-09-04T12:02:15.833Z,32.98
2022-09-04T12:03:15.808Z,33.50
2022-09-04T12:04:15.836Z,34.04
2022-09-04T12:05:15.801Z,34.38
2022-09-04T12:06:15.796Z,34.66
2022-09-04T12:07:15.795Z,34.93
2022-09-04T12:08:15.792Z,35.30
2022-09-04T12:09:15.788Z,35.45
2022-09-04T12:10:15.786Z,35.71
2022-09-04T12:11:15.787Z,35.91
2022-09-04T12:12:15.783Z,36.06
2022-09-04T12:13:15.817Z,36.05
2022-09-04T12:14:15.781Z,36.18
2022-09-04T12:15:15.777Z,36.33
2022-09-04T12:16:15.821Z,36.47
2022-09-04T12:17:15.776Z,36.60
2022-09-04T12:18:15.774Z,36.47
2022-09-04T12:19:15.770Z,36.25
2022-09-04T12:20:15.953Z,35.84
2022-09-04T12:21:15.768Z,35.42
2022-09-04T12:22:15.767Z,35.15
2022-09-04T12:23:15.766Z,34.79
2022-09-04T12:24:15.771Z,34.53
2022-09-04T12:25:15.765Z,34.28
2022-09-04T12:26:15.760Z,34.32
2022-09-04T12:27:15.759Z,34.58
2022-09-04T12:28:15.776Z,34.62
2022-09-04T12:29:15.756Z,34.75
2022-09-04T12:30:15.754Z,35.16
2022-09-04T12:31:15.849Z,35.39
2022-09-04T12:32:15.749Z,35.54
2022-09-04T12:33:15.750Z,35.76
2022-09-04T12:34:15.747Z,36.00
2022-09-04T12:35:15.747Z,36.31
2022-09-04T12:36:15.744Z,36.31
2022-09-04T12:37:15.741Z,36.39
2022-09-04T12:38:15.738Z,36.44
2022-09-04T12:39:15.739Z,36.59
2022-09-04T12:40:15.738Z,36.92
2022-09-04T12:41:15.736Z,37.01
2022-09-04T12:42:15.738Z,37.19
2022-09-04T12:43:15.738Z,37.28
2022-09-04T12:44:15.735Z,37.58
2022-09-04T12:45:15.737Z,37.60
2022-09-04T12:46:15.773Z,37.72
2022-09-04T12:47:15.735Z,37.60
2022-09-04T12:48:15.733Z,37.33
2022-09-04T12:49:15.733Z,37.21
2022-09-04T12:50:15.729Z,37.07
2022-09-04T12:51:15.737Z,37.15
2022-09-04T12:52:15.728Z,37.07
2022-09-04T12:53:15.731Z,37.22
2022-09-04T12:54:15.728Z,37.29
2022-09-04T12:55:15.727Z,37.48
2022-09-04T12:56:15.727Z,37.47
2022-09-04T12:57:15.728Z,37.73
2022-09-04T12:58:15.725Z,37.71
2022-09-04T12:59:16.053Z,37.68
2022-09-04T13:00:15.724Z,37.78
2022-09-04T13:01:15.799Z,37.61
2022-09-04T13:02:15.866Z,37.68
2022-09-04T13:03:15.727Z,37.48
2022-09-04T13:04:15.724Z,37.37
2022-09-04T13:05:15.725Z,37.43
2022-09-04T13:06:15.722Z,37.60
2022-09-04T13:07:16.522Z,37.78
2022-09-04T13:08:15.723Z,37.71
2022-09-04T13:09:15.725Z,37.63
2022-09-04T13:10:15.721Z,37.57
2022-09-04T13:11:15.720Z,37.48
2022-09-04T13:12:15.719Z,37.15
2022-09-04T13:13:15.727Z,36.99
2022-09-04T13:14:15.716Z,36.81
2022-09-04T13:15:15.717Z,36.89
2022-09-04T13:16:15.751Z,37.19
2022-09-04T13:17:15.719Z,37.48
2022-09-04T13:18:15.716Z,37.66
2022-09-04T13:19:15.718Z,37.95
2022-09-04T13:20:15.716Z,38.09
2022-09-04T13:21:15.715Z,38.20
2022-09-04T13:22:15.714Z,38.14
2022-09-04T13:23:15.717Z,38.19
2022-09-04T13:24:15.716Z,38.16
2022-09-04T13:25:15.716Z,38.05
2022-09-04T13:26:16.628Z,37.83
2022-09-04T13:27:15.714Z,37.85
2022-09-04T13:28:17.178Z,37.97
2022-09-04T13:29:15.714Z,38.09
2022-09-04T13:30:15.713Z,38.12
2022-09-04T13:31:15.752Z,38.54
2022-09-04T13:32:15.716Z,38.77
2022-09-04T13:33:15.718Z,38.91